Time;durP1;ratioP1;P1;durP2;ratioP2;P2;SDS_P1;SDS_P2;PMS_P1;PMS_P2;Temp;Humidity;BMP_temperature;BMP_pressure;BME280_temperature;BME280_humidity;BME280_pressure;Samples;Min_cycle;Max_cycle;Signal;HPM_P1;HPM_P2
2022/09/04 00:01:43;;;;;;;0.80;0.80;;;18.20;78.20;18.50;96504.00;;;;5134012;27;20214;-86
2022/09/04 00:04:28;;;;;;;1.47;0.87;;;18.20;78.40;18.50;96516.00;;;;5134518;27;20182;-86
2022/09/04 00:07:14;;;;;;;1.53;1.20;;;18.20;78.50;18.50;96512.00;;;;5134624;27;20182;-86
2022/09/04 00:10:00;;;;;;;2.80;1.60;;;18.20;78.40;18.50;96515.00;;;;5133869;27;20257;-86
2022/09/04 00:12:40;;;;;;;2.47;1.47;;;18.10;78.10;18.40;96518.00;;;;5134384;27;20186;-87
2022/09/04 00:15:14;;;;;;;1.30;0.90;;;18.10;77.90;18.40;96518.00;;;;5123437;27;20195;-86
2022/09/04 00:17:52;;;;;;;1.40;1.30;;;18.10;77.80;18.40;96519.00;;;;5119654;27;20640;-86
2022/09/04 00:20:34;;;;;;;1.33;0.97;;;18.10;77.80;18.30;96520.00;;;;5113913;28;20671;-86
2022/09/04 00:23:13;;;;;;;1.63;1.17;;;18.00;77.60;18.30;96527.00;;;;5114091;28;20599;-87
2022/09/04 00:25:53;;;;;;;1.20;1.10;;;18.00;77.60;18.20;96525.00;;;;5113405;28;20697;-86
2022/09/04 00:28:37;;;;;;;0.83;0.83;;;18.00;77.70;18.20;96521.00;;;;5112571;28;20233;-86
2022/09/04 00:31:24;;;;;;;1.10;1.10;;;17.90;77.80;18.20;96515.00;;;;5113388;28;20715;-86
2022/09/04 00:34:06;;;;;;;1.37;0.87;;;17.90;77.60;18.20;96518.00;;;;5114273;28;20179;-86
2022/09/04 00:36:38;;;;;;;1.10;0.90;;;17.90;77.50;18.20;96517.00;;;;5113972;28;20226;-86
2022/09/04 00:39:15;;;;;;;1.20;0.97;;;17.90;77.50;18.20;96516.00;;;;5114678;28;20603;-86
2022/09/04 00:42:08;;;;;;;1.77;0.93;;;17.80;77.60;18.10;96524.00;;;;5113928;28;20544;-86
2022/09/04 00:45:12;;;;;;;1.10;1.00;;;17.80;77.60;18.10;96522.00;;;;5114142;28;20261;-87
2022/09/04 00:48:28;;;;;;;1.80;1.10;;;17.80;77.50;18.00;96525.00;;;;5114236;28;20171;-86
2022/09/04 00:51:19;;;;;;;1.00;0.90;;;17.80;77.60;18.00;96521.00;;;;5105219;28;20222;-86
2022/09/04 00:54:18;;;;;;;1.00;1.00;;;17.70;77.60;17.90;96530.00;;;;5113878;27;20273;-87
2022/09/04 00:57:43;;;;;;;1.87;1.07;;;17.70;77.60;17.90;96527.00;;;;5113581;28;20212;-86
2022/09/04 01:00:14;;;;;;;1.30;0.97;;;17.70;77.70;17.90;96525.00;;;;5043930;28;20217;-86
2022/09/04 01:03:17;;;;;;;1.00;0.83;;;17.60;77.40;17.80;96529.00;;;;5097521;28;20191;-86
2022/09/04 01:06:12;;;;;;;1.57;0.97;;;17.60;77.50;17.80;96534.00;;;;5096690;28;20230;-86
2022/09/04 01:09:15;;;;;;;0.93;0.90;;;17.60;77.50;17.80;96536.00;;;;5093519;28;20262;-87
2022/09/04 01:11:53;;;;;;;1.20;1.10;;;17.50;77.60;17.80;96534.00;;;;5095014;28;20195;-86
2022/09/04 01:14:33;;;;;;;1.50;1.40;;;17.50;77.60;17.70;96534.00;;;;5098430;28;20237;-86
2022/09/04 01:17:17;;;;;;;1.80;1.10;;;17.50;77.70;17.70;96530.00;;;;5113813;28;20621;-86
2022/09/04 01:19:55;;;;;;;1.73;1.30;;;17.50;77.90;17.70;96536.00;;;;5113617;28;20249;-86
2022/09/04 01:22:45;;;;;;;1.17;1.17;;;17.40;77.80;17.70;96546.00;;;;5113213;28;20261;-86
2022/09/04 01:25:32;;;;;;;1.83;1.13;;;17.40;77.80;17.70;96539.00;;;;5113100;28;20183;-86
2022/09/04 01:28:07;;;;;;;1.70;1.30;;;17.40;77.90;17.70;96542.00;;;;5113109;28;20229;-86
2022/09/04 01:30:46;;;;;;;1.33;1.23;;;17.40;77.90;17.60;96543.00;;;;5113076;28;20254;-86
2022/09/04 01:33:27;;;;;;;0.93;0.93;;;17.40;78.00;17.60;96542.00;;;;5113262;28;20214;-86
2022/09/04 01:36:05;;;;;;;1.30;1.20;;;17.30;77.90;17.60;96550.00;;;;5112678;28;20175;-86
2022/09/04 01:38:40;;;;;;;1.50;1.00;;;17.30;78.00;17.60;96553.00;;;;5112942;28;20201;-86
2022/09/04 01:41:18;;;;;;;1.40;1.30;;;17.30;78.90;17.60;96556.00;;;;5112357;28;20300;-86
2022/09/04 01:43:47;;;;;;;1.63;1.40;;;17.30;78.10;17.60;96555.00;;;;5112728;28;20221;-86
2022/09/04 01:46:41;;;;;;;1.43;1.33;;;17.30;78.00;17.60;96558.00;;;;5112430;28;20226;-87
2022/09/04 01:49:20;;;;;;;1.20;1.10;;;17.30;78.30;17.60;96555.00;;;;5112837;28;20616;-86
2022/09/04 01:52:01;;;;;;;1.33;1.23;;;17.30;78.10;17.60;96557.00;;;;5112886;28;20217;-87
2022/09/04 01:54:52;;;;;;;2.07;1.37;;;17.30;78.10;17.50;96559.00;;;;5112802;28;20186;-86
2022/09/04 01:57:39;;;;;;;1.20;1.10;;;17.30;78.10;17.50;96559.00;;;;5112885;28;20589;-86
2022/09/04 02:00:11;;;;;;;1.43;1.17;;;17.30;78.10;17.50;96564.00;;;;5112759;28;20305;-86
2022/09/04 02:02:55;;;;;;;1.37;1.27;;;17.20;78.10;17.50;96565.00;;;;5112614;28;20226;-86
2022/09/04 02:05:37;;;;;;;1.20;1.20;;;17.20;78.20;17.50;96563.00;;;;5112095;28;20647;-86
2022/09/04 02:08:29;;;;;;;1.37;1.10;;;17.20;78.40;17.50;96562.00;;;;5112314;28;20278;-86
2022/09/04 02:11:05;;;;;;;2.30;1.23;;;17.20;78.80;17.50;96562.00;;;;5112378;28;20872;-86
2022/09/04 02:13:46;;;;;;;1.53;1.00;;;17.20;78.80;17.50;96560.00;;;;5112213;28;20669;-87
2022/09/04 02:16:30;;;;;;;1.10;1.00;;;17.20;78.80;17.50;96562.00;;;;5111763;28;20281;-86
2022/09/04 02:19:12;;;;;;;1.10;1.00;;;17.20;78.70;17.50;96561.00;;;;5112130;28;20187;-86
2022/09/04 02:21:47;;;;;;;1.40;1.30;;;17.20;78.40;17.50;96560.00;;;;5111650;28;20236;-86
2022/09/04 02:24:27;;;;;;;1.03;0.90;;;17.20;78.20;17.50;96557.00;;;;5111458;28;20221;-87
2022/09/04 02:27:05;;;;;;;1.63;1.53;;;17.20;78.20;17.50;96560.00;;;;5111097;28;20237;-87
2022/09/04 02:29:43;;;;;;;1.67;1.30;;;17.20;78.10;17.50;96555.00;;;;5111499;28;20664;-87
2022/09/04 02:32:22;;;;;;;1.30;1.20;;;17.20;78.80;17.40;96562.00;;;;5112453;28;20269;-86
2022/09/04 02:35:02;;;;;;;2.13;1.47;;;17.20;78.00;17.40;96559.00;;;;5111172;28;20840;-86
2022/09/04 02:37:41;;;;;;;1.60;1.50;;;17.10;77.90;17.40;96560.00;;;;5112032;28;20723;-86
2022/09/04 02:40:21;;;;;;;1.90;1.80;;;17.10;77.90;17.40;96560.00;;;;5111367;28;20250;-86
2022/09/04 02:43:12;;;;;;;2.37;1.70;;;17.10;78.00;17.40;96562.00;;;;5112167;28;20210;-86
2022/09/04 02:45:50;;;;;;;2.10;2.00;;;17.10;78.10;17.30;96556.00;;;;5096250;28;20625;-86
2022/09/04 02:48:33;;;;;;;1.70;1.60;;;17.10;78.20;17.30;96557.00;;;;5090244;28;20219;-86
2022/09/04 02:51:19;;;;;;;2.40;2.30;;;17.10;79.00;17.30;96552.00;;;;5092524;28;20215;-86
2022/09/04 02:54:01;;;;;;;2.67;1.77;;;17.10;78.40;17.30;96555.00;;;;5095565;28;20637;-86
2022/09/04 02:56:40;;;;;;;1.93;1.80;;;17.10;78.30;17.30;96557.00;;;;5095349;28;20211;-86
2022/09/04 02:59:28;;;;;;;2.30;1.90;;;17.00;78.20;17.30;96560.00;;;;5095980;28;20207;-86
2022/09/04 03:01:59;;;;;;;1.97;1.87;;;17.00;78.10;17.30;96559.00;;;;5102605;28;20647;-87
2022/09/04 03:04:40;;;;;;;3.50;2.00;;;17.00;78.10;17.30;96561.00;;;;5115668;28;20612;-86
2022/09/04 03:07:17;;;;;;;1.77;1.67;;;17.00;78.30;17.30;96559.00;;;;5115825;28;20184;-86
2022/09/04 03:09:51;;;;;;;2.03;1.93;;;17.00;78.30;17.20;96557.00;;;;5115571;28;20218;-86
2022/09/04 03:12:37;;;;;;;1.90;1.80;;;17.00;78.30;17.20;96564.00;;;;5115015;28;20226;-87
2022/09/04 03:15:14;;;;;;;1.70;1.60;;;17.00;78.30;17.20;96560.00;;;;5114372;28;20280;-86
2022/09/04 03:17:57;;;;;;;1.30;1.20;;;17.00;79.20;17.30;96567.00;;;;5115712;28;20274;-87
2022/09/04 03:20:28;;;;;;;2.87;1.90;;;17.00;78.70;17.30;96564.00;;;;5115138;28;20633;-87
2022/09/04 03:23:04;;;;;;;1.80;1.70;;;17.00;78.80;17.30;96569.00;;;;5115799;28;20266;-87
2022/09/04 03:26:05;;;;;;;1.60;1.50;;;17.00;78.90;17.30;96569.00;;;;5114258;28;20183;-87
2022/09/04 03:28:50;;;;;;;2.53;1.70;;;17.00;79.10;17.30;96560.00;;;;5105285;28;20702;-86
2022/09/04 03:31:30;;;;;;;1.50;1.40;;;17.00;78.90;17.30;96565.00;;;;5114352;28;20237;-86
2022/09/04 03:34:32;;;;;;;1.73;1.63;;;17.00;79.70;17.30;96570.00;;;;5114840;28;20285;-86
2022/09/04 03:37:22;;;;;;;1.60;1.50;;;17.00;79.00;17.30;96567.00;;;;5114991;28;20214;-86
2022/09/04 03:40:08;;;;;;;2.00;1.80;;;17.00;79.10;17.40;96569.00;;;;5114975;28;20258;-87
2022/09/04 03:42:54;;;;;;;1.80;1.70;;;17.00;79.20;17.40;96576.00;;;;5115479;28;20175;-87
2022/09/04 03:45:34;;;;;;;2.00;1.87;;;17.10;79.30;17.40;96580.00;;;;5114723;28;20267;-86
2022/09/04 03:48:25;;;;;;;1.97;1.87;;;17.10;79.60;17.50;96580.00;;;;5115394;28;20236;-87
2022/09/04 03:51:03;;;;;;;3.80;2.40;;;17.10;79.70;17.50;96580.00;;;;5115124;28;20225;-87
2022/09/04 03:53:41;;;;;;;1.90;1.80;;;17.10;79.60;17.50;96581.00;;;;5114031;28;20765;-86
2022/09/04 03:56:46;;;;;;;1.87;1.77;;;17.10;79.70;17.50;96573.00;;;;5113840;28;20198;-86
2022/09/04 03:59:33;;;;;;;2.17;2.07;;;17.20;79.90;17.60;96583.00;;;;5112254;22;20731;-81
2022/09/04 04:02:16;;;;;;;1.73;1.63;;;17.20;80.20;17.60;96583.00;;;;5116879;28;20218;-82
2022/09/04 04:05:12;;;;;;;2.33;2.10;;;17.20;80.00;17.60;96588.00;;;;5121071;28;20179;-81
2022/09/04 04:07:54;;;;;;;1.97;1.80;;;17.30;80.20;17.70;96589.00;;;;5123143;28;20241;-82
2022/09/04 04:10:34;;;;;;;3.13;1.80;;;17.30;80.20;17.70;96596.00;;;;5121728;28;20229;-82
2022/09/04 04:13:43;;;;;;;1.93;1.77;;;17.30;80.30;17.70;96600.00;;;;5120646;28;20233;-81
2022/09/04 04:16:29;;;;;;;1.60;1.50;;;17.40;80.40;17.80;96600.00;;;;5100368;28;20278;-81
2022/09/04 04:19:25;;;;;;;1.47;1.37;;;17.40;80.50;17.80;96602.00;;;;5086802;28;20339;-81
2022/09/04 04:22:20;;;;;;;1.60;1.50;;;17.40;80.50;17.80;96603.00;;;;5079061;28;20197;-83
2022/09/04 04:25:10;;;;;;;1.40;1.30;;;17.40;80.50;17.90;96612.00;;;;5078420;28;20553;-84
2022/09/04 04:28:02;;;;;;;1.40;1.30;;;17.50;80.50;17.90;96608.00;;;;5079082;28;20290;-84
2022/09/04 04:30:39;;;;;;;1.43;1.33;;;17.50;80.50;17.90;96609.00;;;;5078704;28;20261;-83
2022/09/04 04:33:31;;;;;;;1.10;1.10;;;17.50;80.40;17.90;96616.00;;;;5097963;28;20215;-83
2022/09/04 04:36:12;;;;;;;1.33;1.23;;;17.60;80.70;18.00;96627.00;;;;5102439;28;20223;-82
2022/09/04 04:39:10;;;;;;;1.33;1.20;;;17.60;80.60;18.00;96632.00;;;;5098900;28;20215;-82
2022/09/04 04:42:04;;;;;;;1.30;1.20;;;17.60;80.50;18.00;96631.00;;;;5097367;28;20195;-84
2022/09/04 04:48:23;;;;;;;0.83;0.83;;;17.70;80.50;18.10;96631.00;;;;5097227;28;20332;-83
2022/09/04 04:51:05;;;;;;;1.03;1.03;;;17.70;80.50;18.10;96637.00;;;;5095071;28;20215;-83
2022/09/04 04:53:49;;;;;;;1.40;1.03;;;17.70;80.40;18.10;96641.00;;;;5096801;28;20233;-83
2022/09/04 04:56:26;;;;;;;1.20;1.10;;;17.70;80.50;18.10;96655.00;;;;5096331;28;20271;-83
2022/09/04 04:59:08;;;;;;;1.67;1.20;;;17.80;80.40;18.20;96653.00;;;;5095653;28;20313;-83
2022/09/04 05:01:52;;;;;;;1.10;1.10;;;17.80;80.50;18.20;96651.00;;;;5096065;28;20575;-84
2022/09/04 05:04:35;;;;;;;1.10;1.10;;;17.80;80.50;18.20;96663.00;;;;5095593;28;20655;-83
2022/09/04 05:07:13;;;;;;;2.27;1.50;;;17.80;80.50;18.30;96663.00;;;;5094852;28;20645;-83
2022/09/04 05:09:50;;;;;;;1.43;1.33;;;17.90;80.40;18.30;96667.00;;;;5095669;28;20211;-83
2022/09/04 05:12:30;;;;;;;1.30;1.20;;;17.90;80.50;18.30;96679.00;;;;5095020;28;20251;-84
2022/09/04 05:15:08;;;;;;;1.20;1.10;;;17.90;80.50;18.30;96672.00;;;;5084863;28;20231;-85
2022/09/04 05:17:46;;;;;;;1.20;1.10;;;17.90;80.60;18.40;96673.00;;;;5073906;28;20223;-84
2022/09/04 05:20:42;;;;;;;1.90;1.50;;;18.00;80.70;18.40;96678.00;;;;5074912;28;20223;-84
2022/09/04 05:23:32;;;;;;;1.47;1.20;;;18.00;80.70;18.40;96680.00;;;;5074441;28;20215;-83
2022/09/04 05:26:12;;;;;;;1.13;1.03;;;18.00;80.60;18.50;96683.00;;;;5072636;28;20231;-84
2022/09/04 05:28:54;;;;;;;1.63;1.30;;;18.10;80.70;18.50;96692.00;;;;5074634;28;20307;-84
2022/09/04 05:31:38;;;;;;;1.23;1.17;;;18.10;80.60;18.50;96695.00;;;;5073984;28;20208;-84
2022/09/04 05:34:19;;;;;;;3.70;1.17;;;18.10;80.70;18.60;96701.00;;;;5072711;28;20204;-84
2022/09/04 05:37:01;;;;;;;1.77;1.67;;;18.10;80.70;18.60;96700.00;;;;5073712;28;20188;-84
2022/09/04 05:39:32;;;;;;;1.60;1.50;;;18.20;80.70;18.60;96702.00;;;;5074374;28;20227;-84
2022/09/04 05:42:41;;;;;;;1.80;1.70;;;18.20;80.70;18.70;96705.00;;;;5073185;28;20620;-84
2022/09/04 05:45:24;;;;;;;2.20;2.00;;;18.20;80.60;18.70;96706.00;;;;5073276;28;20188;-85
2022/09/04 05:48:06;;;;;;;1.40;1.30;;;18.30;80.50;18.70;96710.00;;;;5074832;28;20258;-83
2022/09/04 05:51:06;;;;;;;1.50;1.40;;;18.30;80.60;18.80;96717.00;;;;5073536;28;20306;-83
2022/09/04 05:54:01;;;;;;;1.53;1.10;;;18.30;80.90;18.80;96719.00;;;;5081507;28;20221;-83
2022/09/04 05:57:22;;;;;;;1.37;1.00;;;18.40;80.90;18.80;96724.00;;;;5077186;28;20292;-84
2022/09/04 06:00:09;;;;;;;1.30;1.20;;;18.40;81.00;18.90;96725.00;;;;4994738;28;20257;-84
2022/09/04 06:03:24;;;;;;;2.40;1.53;;;18.40;80.80;18.90;96718.00;;;;4993335;28;20719;-84
2022/09/04 06:06:15;;;;;;;1.00;1.00;;;18.50;80.90;19.00;96721.00;;;;5075681;28;20216;-84
2022/09/04 06:09:07;;;;;;;1.67;1.17;;;18.50;81.00;19.00;96717.00;;;;5075283;28;20299;-84
2022/09/04 06:11:51;;;;;;;0.90;0.90;;;18.50;81.10;19.10;96723.00;;;;5071469;28;20208;-87
2022/09/04 06:14:37;;;;;;;1.10;1.07;;;18.60;81.10;19.10;96728.00;;;;5071070;28;20622;-86
2022/09/04 06:17:28;;;;;;;1.30;1.20;;;18.60;81.20;19.20;96734.00;;;;5071771;28;20207;-86
2022/09/04 06:20:15;;;;;;;0.90;0.90;;;18.70;81.20;19.20;96740.00;;;;5072224;28;20184;-87
2022/09/04 06:23:41;;;;;;;1.30;1.10;;;18.70;81.30;19.30;96747.00;;;;5072178;28;20245;-85
2022/09/04 06:26:27;;;;;;;1.20;1.10;;;18.80;81.40;19.40;96750.00;;;;4990847;28;20265;-86
2022/09/04 06:29:50;;;;;;;1.30;1.17;;;18.80;81.40;19.40;96754.00;;;;5074863;28;20231;-84
2022/09/04 06:33:03;;;;;;;0.90;0.90;;;18.90;81.70;19.50;96751.00;;;;5074060;28;20224;-84
2022/09/04 06:36:16;;;;;;;1.10;1.10;;;18.90;81.60;19.60;96753.00;;;;5074016;28;20196;-85
2022/09/04 06:39:07;;;;;;;1.17;1.07;;;19.00;81.30;19.70;96760.00;;;;5068599;28;20253;-85
2022/09/04 06:42:00;;;;;;;1.53;1.20;;;19.10;81.40;19.80;96761.00;;;;5073971;28;20227;-85
2022/09/04 06:44:49;;;;;;;1.40;1.30;;;19.20;81.30;19.90;96764.00;;;;5071819;28;20249;-83
2022/09/04 06:47:39;;;;;;;1.20;1.20;;;19.20;81.30;19.90;96765.00;;;;5072552;28;20198;-86
2022/09/04 06:50:23;;;;;;;1.33;1.20;;;19.30;81.40;20.00;96763.00;;;;5072880;28;20601;-86
2022/09/04 06:53:07;;;;;;;1.60;1.50;;;19.30;81.40;20.10;96767.00;;;;5072105;28;20187;-85
2022/09/04 06:55:52;;;;;;;1.50;1.40;;;19.50;81.40;20.20;96764.00;;;;5072075;28;20207;-86
2022/09/04 06:59:02;;;;;;;1.70;1.60;;;19.50;81.10;20.20;96772.00;;;;5071209;28;20263;-85
2022/09/04 07:01:45;;;;;;;2.00;1.50;;;19.60;80.90;20.30;96779.00;;;;5049648;28;20196;-85
2022/09/04 07:04:30;;;;;;;1.57;1.47;;;19.70;80.80;20.40;96773.00;;;;5070632;28;20231;-85
2022/09/04 07:07:14;;;;;;;1.73;1.23;;;19.70;80.50;20.50;96774.00;;;;5071865;28;20657;-86
2022/09/04 07:09:48;;;;;;;1.67;1.57;;;19.80;80.40;20.50;96783.00;;;;5071570;28;20251;-86
2022/09/04 07:12:52;;;;;;;1.17;1.13;;;19.80;80.40;20.60;96788.00;;;;5082261;28;20215;-86
2022/09/04 07:15:56;;;;;;;1.40;1.30;;;19.90;80.50;20.60;96794.00;;;;5078790;28;20219;-85
2022/09/04 07:18:53;;;;;;;1.77;0.97;;;20.00;80.20;20.70;96802.00;;;;5077577;28;20221;-86
2022/09/04 07:21:34;;;;;;;1.17;1.07;;;20.00;80.50;20.80;96802.00;;;;5072139;28;20204;-84
2022/09/04 07:24:11;;;;;;;1.30;1.00;;;20.10;80.70;20.80;96803.00;;;;5075122;28;20204;-85
2022/09/04 07:26:50;;;;;;;2.10;1.10;;;20.10;80.80;21.00;96810.00;;;;5077571;28;20215;-85
2022/09/04 07:29:33;;;;;;;1.37;1.10;;;20.20;81.10;21.10;96810.00;;;;5076704;28;20775;-85
2022/09/04 07:32:09;;;;;;;1.20;1.20;;;20.30;81.10;21.20;96805.00;;;;5076479;28;20227;-84
2022/09/04 07:34:49;;;;;;;1.07;1.07;;;20.40;81.10;21.30;96806.00;;;;5077036;28;20181;-85
2022/09/04 07:37:31;;;;;;;1.07;0.90;;;20.50;81.00;21.40;96812.00;;;;5072725;28;20648;-85
2022/09/04 07:40:10;;;;;;;1.10;1.00;;;20.60;81.00;21.50;96818.00;;;;5083681;28;20184;-86
2022/09/04 07:42:47;;;;;;;0.73;0.73;;;20.70;81.10;21.60;96825.00;;;;5084816;28;20188;-87
2022/09/04 07:45:29;;;;;;;0.90;0.90;;;20.80;81.10;21.80;96828.00;;;;5074801;28;20627;-87
2022/09/04 07:48:16;;;;;;;0.97;0.97;;;20.90;81.00;21.90;96820.00;;;;5080511;28;20217;-84
2022/09/04 07:51:03;;;;;;;0.80;0.80;;;21.00;80.90;22.10;96831.00;;;;5097933;28;20210;-85
2022/09/04 07:53:57;;;;;;;0.90;0.70;;;21.20;81.00;22.20;96830.00;;;;5098182;28;20195;-85
2022/09/04 07:56:44;;;;;;;0.90;0.90;;;21.30;81.00;22.40;96823.00;;;;5099670;28;20183;-86
2022/09/04 07:59:44;;;;;;;0.80;0.80;;;21.50;80.80;22.60;96827.00;;;;5095385;28;20703;-86
2022/09/04 08:02:38;;;;;;;0.83;0.83;;;21.60;80.30;22.60;96834.00;;;;5094344;28;20304;-85
2022/09/04 08:05:33;;;;;;;1.17;0.80;;;21.70;80.20;22.70;96840.00;;;;5094134;28;20231;-87
2022/09/04 08:08:35;;;;;;;0.93;0.93;;;21.80;79.40;22.80;96837.00;;;;5082793;28;20247;-85
2022/09/04 08:11:38;;;;;;;2.03;1.20;;;21.90;79.90;22.90;96845.00;;;;5096487;28;20225;-86
2022/09/04 08:14:31;;;;;;;1.20;1.10;;;22.00;79.60;23.00;96848.00;;;;5076990;28;20211;-88
2022/09/04 08:17:41;;;;;;;1.10;1.10;;;22.10;79.20;23.20;96858.00;;;;5097054;28;20751;-85
2022/09/04 08:20:24;;;;;;;0.90;0.90;;;22.30;79.00;23.30;96851.00;;;;5098670;28;20226;-87
2022/09/04 08:23:17;;;;;;;1.20;1.10;;;22.40;79.40;23.40;96856.00;;;;5094623;28;20601;-87
2022/09/04 08:26:13;;;;;;;0.80;0.80;;;22.50;79.10;23.60;96860.00;;;;5094350;28;20187;-86
2022/09/04 08:29:11;;;;;;;1.20;1.10;;;22.60;78.80;23.70;96868.00;;;;5094509;28;20220;-86
2022/09/04 08:31:52;;;;;;;0.80;0.80;;;22.70;78.40;23.90;96870.00;;;;5090435;28;20244;-86
2022/09/04 08:35:04;;;;;;;1.10;1.10;;;22.90;78.60;24.00;96870.00;;;;5075909;28;20203;-85
2022/09/04 08:37:49;;;;;;;1.00;1.00;;;23.00;78.00;24.10;96876.00;;;;5094632;28;20234;-86
2022/09/04 08:40:56;;;;;;;1.70;1.37;;;23.10;78.50;24.30;96879.00;;;;5083242;28;20279;-86
2022/09/04 08:44:00;;;;;;;1.30;1.20;;;23.30;77.30;24.40;96878.00;;;;5072706;28;20303;-86
2022/09/04 08:46:57;;;;;;;1.17;1.07;;;23.40;77.80;24.60;96877.00;;;;5072989;28;20279;-86
2022/09/04 08:50:14;;;;;;;1.00;1.00;;;23.60;77.50;24.80;96877.00;;;;5072497;28;20223;-87
2022/09/04 08:53:42;;;;;;;1.03;1.00;;;23.70;77.20;25.00;96875.00;;;;5080821;28;20683;-87
2022/09/04 08:56:37;;;;;;;2.03;1.20;;;23.90;76.40;25.20;96872.00;;;;5093824;28;20239;-86
2022/09/04 09:00:04;;;;;;;1.33;1.30;;;24.10;76.00;25.40;96874.00;;;;5090500;28;20275;-85
2022/09/04 09:03:28;;;;;;;1.63;1.20;;;24.30;75.00;25.60;96880.00;;;;5093833;28;20211;-86
2022/09/04 09:06:55;;;;;;;1.37;1.30;;;24.40;76.20;25.80;96884.00;;;;5093271;28;20190;-86
2022/09/04 09:10:13;;;;;;;1.47;1.37;;;24.60;75.90;26.00;96893.00;;;;5051607;28;20219;-87
2022/09/04 09:13:33;;;;;;;0.97;0.97;;;24.80;76.10;26.20;96884.00;;;;5079214;28;20235;-87
2022/09/04 09:16:20;;;;;;;1.67;1.57;;;25.00;75.00;26.40;96880.00;;;;5090413;28;20203;-86
2022/09/04 09:19:21;;;;;;;1.30;1.20;;;25.20;74.80;26.60;96885.00;;;;5070521;28;20277;-86
2022/09/04 09:22:10;;;;;;;1.50;1.40;;;25.30;74.80;26.70;96891.00;;;;5068660;28;20203;-86
2022/09/04 09:25:19;;;;;;;1.27;1.27;;;25.50;75.00;26.90;96883.00;;;;5075042;28;20187;-85
2022/09/04 09:28:56;;;;;;;1.83;1.60;;;25.70;73.10;27.10;96879.00;;;;5072863;28;20215;-85
2022/09/04 09:32:31;;;;;;;1.43;1.33;;;25.80;73.20;27.20;96884.00;;;;5032357;28;20310;-86
2022/09/04 09:35:54;;;;;;;1.67;1.57;;;26.00;72.90;27.40;96883.00;;;;4992328;28;20235;-86
2022/09/04 09:39:15;;;;;;;1.67;1.57;;;26.20;72.20;27.40;96891.00;;;;5073035;28;20720;-87
2022/09/04 09:42:34;;;;;;;1.60;1.50;;;26.30;71.60;27.60;96880.00;;;;5073256;28;20220;-90
2022/09/04 09:45:50;;;;;;;1.40;1.30;;;26.40;71.00;27.70;96888.00;;;;5069533;28;20203;-89
2022/09/04 09:49:35;;;;;;;1.60;1.50;;;26.50;70.90;27.90;96886.00;;;;5073239;28;20652;-88
2022/09/04 09:52:30;;;;;;;1.53;1.43;;;26.70;70.60;28.00;96878.00;;;;5019724;28;20272;-88
2022/09/04 09:55:45;;;;;;;1.17;1.10;;;26.80;70.60;28.20;96881.00;;;;4992520;28;20269;-89
2022/09/04 10:01:03;;;;;;;1.20;1.20;;;27.10;71.30;28.50;96887.00;;;;5069797;28;20215;-84
2022/09/04 10:04:05;;;;;;;1.10;1.10;;;27.20;69.80;28.60;96881.00;;;;5072144;28;20219;-84
2022/09/04 10:07:21;;;;;;;0.90;0.90;;;27.40;69.60;28.70;96876.00;;;;5073451;28;20183;-83
2022/09/04 10:10:46;;;;;;;1.20;1.10;;;27.50;68.60;28.80;96883.00;;;;5071881;28;20227;-84
2022/09/04 10:13:46;;;;;;;1.30;1.20;;;27.60;68.40;29.00;96881.00;;;;5057583;28;20598;-83
2022/09/04 10:17:02;;;;;;;1.17;0.90;;;27.80;68.30;29.20;96873.00;;;;5072359;28;20292;-84
2022/09/04 10:20:30;;;;;;;0.95;0.88;;;28.00;68.80;29.50;96880.00;;;;5052340;28;20258;-84
2022/09/04 10:23:41;;;;;;;1.15;1.05;;;28.20;68.80;29.70;96874.00;;;;5071470;28;20267;-84
2022/09/04 10:26:51;;;;;;;0.80;0.80;;;28.40;66.60;29.90;96875.00;;;;5061743;28;20265;-84
2022/09/04 10:29:58;;;;;;;0.80;0.80;;;28.60;66.10;30.00;96875.00;;;;5070169;28;20258;-84
2022/09/04 10:33:17;;;;;;;0.88;0.88;;;28.80;66.10;30.30;96879.00;;;;5048450;28;20307;-84
2022/09/04 10:36:20;;;;;;;0.95;0.88;;;29.10;66.10;30.50;96877.00;;;;5055487;28;20203;-84
2022/09/04 10:42:11;;;;;;;0.80;0.80;;;29.50;65.20;30.70;96879.00;;;;5070198;28;20187;-83
2022/09/04 10:45:18;;;;;;;0.70;0.70;;;29.70;64.20;30.70;96876.00;;;;5071217;28;20223;-84
2022/09/04 10:48:32;;;;;;;0.50;0.50;;;29.80;62.60;30.60;96878.00;;;;5069345;28;20200;-84
2022/09/04 10:51:50;;;;;;;0.70;0.70;;;29.80;61.50;30.50;96888.00;;;;5071491;28;20614;-83
2022/09/04 10:54:58;;;;;;;0.90;0.80;;;29.80;60.60;30.40;96886.00;;;;5062100;28;20238;-84
2022/09/04 10:58:16;;;;;;;0.60;0.60;;;29.80;60.10;30.30;96886.00;;;;5056260;28;20650;-84
2022/09/04 11:01:18;;;;;;;1.60;1.00;;;29.70;60.10;30.20;96878.00;;;;5050597;28;20322;-83
2022/09/04 11:04:23;;;;;;;1.27;0.70;;;29.50;60.50;30.10;96882.00;;;;5050336;28;20268;-84
2022/09/04 11:07:29;;;;;;;0.60;0.60;;;29.50;60.10;30.00;96891.00;;;;5050542;28;20189;-84
2022/09/04 11:10:17;;;;;;;0.70;0.63;;;29.40;59.40;29.90;96886.00;;;;5051157;28;20842;-84
2022/09/04 11:13:38;;;;;;;0.80;0.80;;;29.30;59.40;29.70;96888.00;;;;5050960;28;20674;-83
2022/09/04 11:16:56;;;;;;;0.57;0.57;;;29.10;57.90;29.40;96890.00;;;;5053907;28;20196;-84
2022/09/04 11:20:12;;;;;;;1.20;0.77;;;29.00;58.60;29.20;96884.00;;;;5055256;28;20252;-84
2022/09/04 11:23:39;;;;;;;0.70;0.70;;;28.80;58.30;29.10;96887.00;;;;5052862;28;20287;-84
2022/09/04 11:27:01;;;;;;;0.68;0.68;;;28.60;58.70;29.00;96880.00;;;;5054494;28;20213;-84
2022/09/04 11:29:54;;;;;;;0.60;0.60;;;28.50;59.10;28.90;96882.00;;;;5054844;28;20256;-83
2022/09/04 11:33:36;;;;;;;0.50;0.50;;;28.30;59.60;28.80;96885.00;;;;5053699;28;20219;-83
2022/09/04 11:36:58;;;;;;;0.80;0.80;;;28.20;59.50;28.70;96877.00;;;;4992084;28;20194;-83
2022/09/04 11:40:06;;;;;;;0.50;0.50;;;28.10;59.40;28.70;96880.00;;;;5054055;28;20601;-83
2022/09/04 11:42:48;;;;;;;0.60;0.60;;;28.00;59.80;28.60;96875.00;;;;5054403;28;20181;-84
2022/09/04 11:45:50;;;;;;;0.47;0.47;;;27.90;60.30;28.60;96875.00;;;;5053790;28;20224;-83
2022/09/04 11:49:06;;;;;;;0.63;0.63;;;27.90;59.90;28.60;96882.00;;;;5053160;28;20295;-84
2022/09/04 11:52:25;;;;;;;0.80;0.80;;;27.80;59.90;28.60;96874.00;;;;5053365;28;20600;-83
2022/09/04 11:55:16;;;;;;;0.57;0.57;;;27.80;60.00;28.50;96880.00;;;;5053474;28;20196;-85
2022/09/04 11:58:08;;;;;;;1.37;0.53;;;27.70;60.10;28.50;96883.00;;;;5046793;28;20316;-84
2022/09/04 12:00:58;;;;;;;0.40;0.40;;;27.70;60.80;28.40;96878.00;;;;5062540;28;20350;-85
2022/09/04 12:04:08;;;;;;;0.60;0.60;;;27.70;59.50;28.40;96886.00;;;;5067883;28;20271;-83
2022/09/04 12:06:58;;;;;;;0.60;0.60;;;27.60;58.70;28.30;96891.00;;;;5073600;28;20287;-84
2022/09/04 12:10:09;;;;;;;0.67;0.67;;;27.60;59.80;28.30;96884.00;;;;5074070;28;20225;-85
2022/09/04 12:13:26;;;;;;;0.50;0.50;;;27.60;60.00;28.20;96883.00;;;;5071888;28;20255;-84
2022/09/04 12:16:45;;;;;;;1.47;0.73;;;27.50;58.70;28.20;96883.00;;;;5073402;28;20196;-84
2022/09/04 12:20:05;;;;;;;0.55;0.55;;;27.50;59.10;28.20;96882.00;;;;5043018;28;20223;-84
2022/09/04 12:23:12;;;;;;;0.60;0.60;;;27.50;59.10;28.10;96875.00;;;;5073763;28;20188;-85
2022/09/04 12:26:42;;;;;;;0.30;0.30;;;27.50;59.10;28.10;96871.00;;;;5073086;28;20641;-85
2022/09/04 12:29:46;;;;;;;0.47;0.47;;;27.40;58.30;28.10;96871.00;;;;5045039;28;20251;-85
2022/09/04 12:33:17;;;;;;;0.60;0.60;;;27.40;58.00;28.10;96871.00;;;;5073232;28;20266;-84
2022/09/04 12:36:45;;;;;;;0.50;0.50;;;27.40;56.90;28.10;96865.00;;;;5073073;28;20602;-85
2022/09/04 12:40:27;;;;;;;0.53;0.40;;;27.40;58.00;28.10;96867.00;;;;5073338;28;20277;-84
2022/09/04 12:43:07;;;;;;;0.53;0.53;;;27.40;58.40;28.20;96873.00;;;;5011404;28;20268;-84
2022/09/04 12:45:49;;;;;;;0.60;0.60;;;27.50;58.00;28.20;96872.00;;;;5072349;28;20375;-84
2022/09/04 12:48:34;;;;;;;0.50;0.50;;;27.50;57.70;28.30;96873.00;;;;5074021;28;20244;-83
2022/09/04 12:51:11;;;;;;;0.50;0.50;;;27.50;58.20;28.30;96877.00;;;;5058310;28;20188;-84
2022/09/04 12:54:13;;;;;;;0.60;0.60;;;27.60;57.80;28.30;96880.00;;;;5060524;28;20320;-84
2022/09/04 12:56:50;;;;;;;0.40;0.40;;;27.50;57.80;28.30;96881.00;;;;5051233;28;20265;-83
2022/09/04 12:59:41;;;;;;;0.43;0.43;;;27.60;57.50;28.30;96872.00;;;;5052591;28;20281;-83
2022/09/04 13:02:26;;;;;;;0.53;0.53;;;27.60;57.50;28.30;96877.00;;;;5051910;28;20181;-84